sensor_id;sensor_type;location;lat;lon;timestamp;P1;durP1;ratioP1;P2;durP2;ratioP2
7585;SDS011;12459;42.646;23.292;2024-01-11T00:01:09;1.80;;;1.70;;
7585;SDS011;12459;42.646;23.292;2024-01-11T00:16:13;1.90;;;1.80;;
7585;SDS011;12459;42.646;23.292;2024-01-11T00:31:15;1.63;;;1.53;;
7585;SDS011;12459;42.646;23.292;2024-01-11T00:46:18;1.80;;;1.70;;
7585;SDS011;12459;42.646;23.292;2024-01-11T01:01:19;1.60;;;1.50;;
7585;SDS011;12459;42.646;23.292;2024-01-11T01:16:21;1.63;;;1.53;;
7585;SDS011;12459;42.646;23.292;2024-01-11T01:31:23;1.70;;;1.60;;
7585;SDS011;12459;42.646;23.292;2024-01-11T01:46:25;1.50;;;1.40;;
7585;SDS011;12459;42.646;23.292;2024-01-11T02:01:29;1.67;;;1.57;;
7585;SDS011;12459;42.646;23.292;2024-01-11T02:16:31;1.60;;;1.50;;
7585;SDS011;12459;42.646;23.292;2024-01-11T02:31:33;1.60;;;1.50;;
7585;SDS011;12459;42.646;23.292;2024-01-11T02:46:35;1.60;;;1.50;;
7585;SDS011;12459;42.646;23.292;2024-01-11T03:01:37;1.80;;;1.70;;
7585;SDS011;12459;42.646;23.292;2024-01-11T03:16:39;1.57;;;1.47;;
7585;SDS011;12459;42.646;23.292;2024-01-11T03:31:41;1.50;;;1.40;;
7585;SDS011;12459;42.646;23.292;2024-01-11T03:46:44;1.70;;;1.60;;
7585;SDS011;12459;42.646;23.292;2024-01-11T04:01:46;1.50;;;1.40;;
7585;SDS011;12459;42.646;23.292;2024-01-11T04:16:48;1.40;;;1.30;;
7585;SDS011;12459;42.646;23.292;2024-01-11T04:31:49;1.50;;;1.40;;
7585;SDS011;12459;42.646;23.292;2024-01-11T04:46:51;1.43;;;1.33;;
7585;SDS011;12459;42.646;23.292;2024-01-11T05:01:53;1.50;;;1.40;;
7585;SDS011;12459;42.646;23.292;2024-01-11T05:16:55;1.60;;;1.50;;
7585;SDS011;12459;42.646;23.292;2024-01-11T05:31:57;1.53;;;1.43;;
7585;SDS011;12459;42.646;23.292;2024-01-11T05:46:59;1.60;;;1.50;;
7585;SDS011;12459;42.646;23.292;2024-01-11T06:02:01;1.60;;;1.50;;
7585;SDS011;12459;42.646;23.292;2024-01-11T06:17:03;1.60;;;1.50;;
7585;SDS011;12459;42.646;23.292;2024-01-11T06:32:05;1.50;;;1.40;;
7585;SDS011;12459;42.646;23.292;2024-01-11T06:47:07;1.60;;;1.50;;
7585;SDS011;12459;42.646;23.292;2024-01-11T07:02:09;1.60;;;1.50;;
7585;SDS011;12459;42.646;23.292;2024-01-11T07:17:11;1.80;;;1.70;;
7585;SDS011;12459;42.646;23.292;2024-01-11T07:32:13;2.10;;;1.90;;
7585;SDS011;12459;42.646;23.292;2024-01-11T07:47:14;2.00;;;1.80;;
7585;SDS011;12459;42.646;23.292;2024-01-11T08:02:16;2.00;;;1.80;;
7585;SDS011;12459;42.646;23.292;2024-01-11T08:17:18;2.03;;;1.83;;
7585;SDS011;12459;42.646;23.292;2024-01-11T08:32:20;2.20;;;2.00;;
7585;SDS011;12459;42.646;23.292;2024-01-11T08:47:35;2.37;;;2.17;;
7585;SDS011;12459;42.646;23.292;2024-01-11T09:02:37;2.23;;;2.03;;
7585;SDS011;12459;42.646;23.292;2024-01-11T09:17:39;2.20;;;2.00;;
7585;SDS011;12459;42.646;23.292;2024-01-11T09:32:41;2.07;;;1.87;;
7585;SDS011;12459;42.646;23.292;2024-01-11T09:47:43;2.50;;;2.30;;
7585;SDS011;12459;42.646;23.292;2024-01-11T10:02:50;2.60;;;2.40;;
7585;SDS011;12459;42.646;23.292;2024-01-11T10:17:53;2.47;;;2.27;;
7585;SDS011;12459;42.646;23.292;2024-01-11T10:32:57;2.50;;;2.30;;
7585;SDS011;12459;42.646;23.292;2024-01-11T10:48:02;2.63;;;2.43;;
7585;SDS011;12459;42.646;23.292;2024-01-11T11:03:07;2.60;;;2.40;;
7585;SDS011;12459;42.646;23.292;2024-01-11T11:18:12;3.27;;;2.97;;
7585;SDS011;12459;42.646;23.292;2024-01-11T11:33:22;3.53;;;3.23;;
7585;SDS011;12459;42.646;23.292;2024-01-11T12:03:32;3.63;;;3.33;;
7585;SDS011;12459;42.646;23.292;2024-01-11T12:18:40;3.90;;;3.60;;
7585;SDS011;12459;42.646;23.292;2024-01-11T12:33:43;4.37;;;4.07;;
7585;SDS011;12459;42.646;23.292;2024-01-11T12:48:45;3.90;;;3.60;;
7585;SDS011;12459;42.646;23.292;2024-01-11T13:20:14;3.90;;;3.60;;
7585;SDS011;12459;42.646;23.292;2024-01-11T13:35:16;3.77;;;3.47;;
7585;SDS011;12459;42.646;23.292;2024-01-11T13:50:18;3.80;;;3.50;;
7585;SDS011;12459;42.646;23.292;2024-01-11T14:05:22;3.60;;;3.30;;
7585;SDS011;12459;42.646;23.292;2024-01-11T14:20:24;3.80;;;3.50;;
7585;SDS011;12459;42.646;23.292;2024-01-11T14:35:40;3.83;;;3.53;;
7585;SDS011;12459;42.646;23.292;2024-01-11T14:50:42;3.47;;;3.17;;
7585;SDS011;12459;42.646;23.292;2024-01-11T15:05:44;3.40;;;3.10;;
7585;SDS011;12459;42.646;23.292;2024-01-11T15:20:46;3.00;;;2.77;;
7585;SDS011;12459;42.646;23.292;2024-01-11T15:35:48;3.13;;;2.87;;
7585;SDS011;12459;42.646;23.292;2024-01-11T15:50:51;3.27;;;2.97;;
7585;SDS011;12459;42.646;23.292;2024-01-11T16:05:56;3.47;;;3.17;;
7585;SDS011;12459;42.646;23.292;2024-01-11T16:20:58;2.73;;;2.53;;
7585;SDS011;12459;42.646;23.292;2024-01-11T16:36:00;3.70;;;3.40;;
7585;SDS011;12459;42.646;23.292;2024-01-11T16:51:05;3.33;;;3.03;;
7585;SDS011;12459;42.646;23.292;2024-01-11T17:06:07;3.20;;;2.90;;
7585;SDS011;12459;42.646;23.292;2024-01-11T17:21:08;3.63;;;3.33;;
7585;SDS011;12459;42.646;23.292;2024-01-11T17:36:11;3.23;;;2.93;;
7585;SDS011;12459;42.646;23.292;2024-01-11T17:51:13;3.10;;;2.80;;
7585;SDS011;12459;42.646;23.292;2024-01-11T18:06:16;2.80;;;2.60;;
7585;SDS011;12459;42.646;23.292;2024-01-11T18:21:18;3.30;;;3.00;;
7585;SDS011;12459;42.646;23.292;2024-01-11T18:36:22;3.20;;;2.90;;
7585;SDS011;12459;42.646;23.292;2024-01-11T18:51:24;2.87;;;2.67;;
7585;SDS011;12459;42.646;23.292;2024-01-11T19:06:26;2.80;;;2.60;;
7585;SDS011;12459;42.646;23.292;2024-01-11T19:21:28;3.17;;;2.87;;
7585;SDS011;12459;42.646;23.292;2024-01-11T19:36:30;3.00;;;2.80;;
7585;SDS011;12459;42.646;23.292;2024-01-11T19:51:32;2.93;;;2.73;;
7585;SDS011;12459;42.646;23.292;2024-01-11T20:06:34;3.13;;;2.83;;
7585;SDS011;12459;42.646;23.292;2024-01-11T20:21:36;2.67;;;2.47;;
7585;SDS011;12459;42.646;23.292;2024-01-11T20:36:38;2.90;;;2.70;;
7585;SDS011;12459;42.646;23.292;2024-01-11T20:51:41;2.20;;;2.00;;
7585;SDS011;12459;42.646;23.292;2024-01-11T21:06:47;2.53;;;2.33;;
7585;SDS011;12459;42.646;23.292;2024-01-11T21:21:49;2.47;;;2.27;;
7585;SDS011;12459;42.646;23.292;2024-01-11T21:36:52;2.57;;;2.37;;
7585;SDS011;12459;42.646;23.292;2024-01-11T21:51:54;2.33;;;2.13;;
7585;SDS011;12459;42.646;23.292;2024-01-11T22:06:56;2.53;;;2.33;;
7585;SDS011;12459;42.646;23.292;2024-01-11T22:21:58;2.53;;;2.33;;
7585;SDS011;12459;42.646;23.292;2024-01-11T22:37:00;2.37;;;2.17;;
7585;SDS011;12459;42.646;23.292;2024-01-11T22:52:02;2.30;;;2.10;;
7585;SDS011;12459;42.646;23.292;2024-01-11T23:07:04;2.10;;;1.90;;
7585;SDS011;12459;42.646;23.292;2024-01-11T23:22:06;2.17;;;1.97;;
7585;SDS011;12459;42.646;23.292;2024-01-11T23:37:08;2.00;;;1.80;;
7585;SDS011;12459;42.646;23.292;2024-01-11T23:52:10;2.27;;;2.07;;
